THA776 RJEC-UHHH
Flight info
| Callsign | THA776 |
|---|---|
| Flight time | 2h 58m |
| Altitude | 10000 |
| Route | RUMOI/K0315F100 |
| Aircraft | BE36/L-BDFGLORY/S |
Departure
| Time | 2026-05-07 03:49 |
|---|---|
| Airport | Asahikawa Airport (RJEC) |
Arrival
| Time | 2026-05-07 06:47 |
|---|---|
| Airport | Khabarovsk Novy Airport (UHHH) |
| Time | Latitude | Longitude | Altitude | Speed | Heading |
|---|---|---|---|---|---|
| 2026-05-07 03:48 | 43.66846 | 142.43047 | 5882 ft | 87 kts | 264° |
| 2026-05-07 03:49 | 43.66885 | 142.42225 | 6212 ft | 85 kts | 264° |
| 2026-05-07 03:49 | 43.66921 | 142.41415 | 6485 ft | 85 kts | 264° |
| 2026-05-07 03:49 | 43.66958 | 142.40609 | 6752 ft | 85 kts | 264° |
| 2026-05-07 03:49 | 43.66995 | 142.39785 | 7010 ft | 86 kts | 265° |
| 2026-05-07 03:50 | 43.67033 | 142.38953 | 7277 ft | 87 kts | 266° |
| 2026-05-07 03:50 | 43.67069 | 142.38113 | 7521 ft | 88 kts | 266° |
| 2026-05-07 03:50 | 43.67110 | 142.37207 | 7651 ft | 99 kts | 266° |
| 2026-05-07 03:50 | 43.67153 | 142.36326 | 7995 ft | 88 kts | 267° |
| 2026-05-07 03:51 | 43.67190 | 142.35470 | 8194 ft | 91 kts | 268° |
| 2026-05-07 03:51 | 43.67229 | 142.34602 | 8438 ft | 90 kts | 266° |
| 2026-05-07 03:51 | 43.67267 | 142.33734 | 8722 ft | 91 kts | 266° |
| 2026-05-07 03:51 | 43.67306 | 142.32854 | 8953 ft | 93 kts | 267° |
| 2026-05-07 03:52 | 43.67356 | 142.31960 | 9116 ft | 93 kts | 267° |
| 2026-05-07 03:52 | 43.67390 | 142.31068 | 9342 ft | 94 kts | 267° |
| 2026-05-07 03:52 | 43.67428 | 142.30164 | 9493 ft | 96 kts | 267° |
| 2026-05-07 03:52 | 43.67472 | 142.29255 | 9683 ft | 95 kts | 267° |
| 2026-05-07 03:53 | 43.67514 | 142.28341 | 9832 ft | 96 kts | 267° |
| 2026-05-07 03:53 | 43.67559 | 142.27430 | 9973 ft | 94 kts | 267° |
| 2026-05-07 03:53 | 43.67585 | 142.26838 | 9989 ft | 94 kts | 267° |
| 2026-05-07 03:53 | 43.67625 | 142.25859 | 10005 ft | 111 kts | 267° |
| 2026-05-07 03:54 | 43.67679 | 142.24730 | 10002 ft | 123 kts | 269° |
| 2026-05-07 03:54 | 43.67755 | 142.23106 | 9988 ft | 133 kts | 269° |
| 2026-05-07 03:54 | 43.67815 | 142.21820 | 9992 ft | 136 kts | 269° |
| 2026-05-07 03:54 | 43.67855 | 142.20921 | 9993 ft | 140 kts | 269° |
| 2026-05-07 03:55 | 43.67917 | 142.19576 | 9993 ft | 143 kts | 269° |
| 2026-05-07 03:55 | 43.67980 | 142.18192 | 9991 ft | 145 kts | 269° |
| 2026-05-07 03:55 | 43.68043 | 142.16810 | 9989 ft | 143 kts | 269° |
| 2026-05-07 03:55 | 43.68104 | 142.15452 | 9993 ft | 141 kts | 269° |
| 2026-05-07 03:56 | 43.68165 | 142.14098 | 9988 ft | 141 kts | 269° |
| 2026-05-07 03:56 | 43.68224 | 142.12746 | 9987 ft | 143 kts | 269° |
| 2026-05-07 03:56 | 43.68286 | 142.11377 | 9983 ft | 142 kts | 269° |
| 2026-05-07 03:56 | 43.68347 | 142.10010 | 9983 ft | 142 kts | 269° |
| 2026-05-07 03:57 | 43.68408 | 142.08647 | 9982 ft | 141 kts | 269° |
| 2026-05-07 03:57 | 43.68467 | 142.07300 | 10052 ft | 136 kts | 269° |
| 2026-05-07 03:57 | 43.68523 | 142.06108 | 10460 ft | 112 kts | 268° |
| 2026-05-07 03:57 | 43.68566 | 142.05149 | 10876 ft | 92 kts | 267° |
| 2026-05-07 03:58 | 43.68603 | 142.04272 | 11082 ft | 92 kts | 266° |
| 2026-05-07 03:58 | 43.68640 | 142.03320 | 11056 ft | 110 kts | 268° |
| 2026-05-07 03:58 | 43.68688 | 142.02187 | 10949 ft | 125 kts | 268° |
| 2026-05-07 03:58 | 43.68742 | 142.00954 | 10847 ft | 135 kts | 269° |
| 2026-05-07 03:59 | 43.68801 | 141.99627 | 10740 ft | 141 kts | 269° |
| 2026-05-07 03:59 | 43.68863 | 141.98249 | 10631 ft | 146 kts | 269° |
| 2026-05-07 03:59 | 43.68924 | 141.96837 | 10517 ft | 148 kts | 269° |
| 2026-05-07 03:59 | 43.68987 | 141.95402 | 10402 ft | 150 kts | 269° |
| 2026-05-07 04:00 | 43.69049 | 141.93954 | 10286 ft | 152 kts | 269° |
| 2026-05-07 04:00 | 43.69113 | 141.92488 | 10166 ft | 153 kts | 269° |
| 2026-05-07 04:00 | 43.69175 | 141.91022 | 10049 ft | 153 kts | 269° |
| 2026-05-07 04:00 | 43.69239 | 141.89544 | 9931 ft | 154 kts | 269° |
| 2026-05-07 04:01 | 43.69302 | 141.88065 | 9813 ft | 154 kts | 270° |
| 2026-05-07 04:01 | 43.69364 | 141.86581 | 9694 ft | 155 kts | 269° |
| 2026-05-07 04:01 | 43.69429 | 141.85083 | 9571 ft | 157 kts | 269° |
| 2026-05-07 04:01 | 43.69492 | 141.83567 | 9446 ft | 158 kts | 269° |
| 2026-05-07 04:02 | 43.69556 | 141.82058 | 9312 ft | 157 kts | 269° |
| 2026-05-07 04:02 | 43.69619 | 141.80558 | 9187 ft | 156 kts | 269° |
| 2026-05-07 04:02 | 43.69683 | 141.79056 | 9053 ft | 156 kts | 269° |
| 2026-05-07 04:02 | 43.69744 | 141.77563 | 8907 ft | 154 kts | 268° |
| 2026-05-07 04:03 | 43.69806 | 141.76089 | 8793 ft | 155 kts | 269° |
| 2026-05-07 04:03 | 43.70011 | 141.74628 | 8831 ft | 151 kts | 280° |
| 2026-05-07 04:03 | 43.70395 | 141.73386 | 9228 ft | 130 kts | 288° |
| 2026-05-07 04:03 | 43.70860 | 141.72437 | 9726 ft | 108 kts | 292° |
| 2026-05-07 04:04 | 43.71321 | 141.71685 | 10023 ft | 103 kts | 297° |
| 2026-05-07 04:04 | 43.71894 | 141.71018 | 10225 ft | 111 kts | 306° |
| 2026-05-07 04:04 | 43.72541 | 141.70403 | 10502 ft | 113 kts | 306° |
| 2026-05-07 04:04 | 43.73176 | 141.69776 | 10755 ft | 110 kts | 306° |
| 2026-05-07 04:05 | 43.73794 | 141.69169 | 10964 ft | 109 kts | 304° |
| 2026-05-07 04:05 | 43.74421 | 141.68564 | 11138 ft | 111 kts | 304° |
| 2026-05-07 04:05 | 43.75046 | 141.67953 | 11285 ft | 111 kts | 304° |
| 2026-05-07 04:05 | 43.75681 | 141.67326 | 11408 ft | 115 kts | 306° |
| 2026-05-07 04:06 | 43.76349 | 141.66685 | 11560 ft | 117 kts | 308° |
| 2026-05-07 04:06 | 43.77017 | 141.66044 | 11733 ft | 115 kts | 305° |
| 2026-05-07 04:06 | 43.77661 | 141.65426 | 11945 ft | 111 kts | 304° |
| 2026-05-07 04:06 | 43.78318 | 141.64774 | 11978 ft | 122 kts | 306° |
| 2026-05-07 04:07 | 43.79042 | 141.64067 | 11984 ft | 132 kts | 307° |
| 2026-05-07 04:07 | 43.79814 | 141.63319 | 11984 ft | 139 kts | 308° |
| 2026-05-07 04:07 | 43.80620 | 141.62538 | 11983 ft | 144 kts | 308° |
| 2026-05-07 04:07 | 43.81450 | 141.61732 | 11980 ft | 148 kts | 309° |
| 2026-05-07 04:08 | 43.82302 | 141.60907 | 11985 ft | 151 kts | 309° |
| 2026-05-07 04:08 | 43.83164 | 141.60072 | 11984 ft | 151 kts | 309° |
| 2026-05-07 04:08 | 43.84020 | 141.59234 | 11987 ft | 151 kts | 309° |
| 2026-05-07 04:08 | 43.84886 | 141.58398 | 11986 ft | 152 kts | 309° |
| 2026-05-07 04:09 | 43.85755 | 141.57552 | 11986 ft | 154 kts | 309° |
| 2026-05-07 04:09 | 43.86635 | 141.56695 | 11987 ft | 155 kts | 309° |
| 2026-05-07 04:09 | 43.87517 | 141.55839 | 11984 ft | 154 kts | 310° |
| 2026-05-07 04:09 | 43.88395 | 141.54980 | 11984 ft | 154 kts | 310° |
| 2026-05-07 04:10 | 43.89271 | 141.54126 | 11981 ft | 154 kts | 310° |
| 2026-05-07 04:10 | 43.90147 | 141.53272 | 11980 ft | 154 kts | 310° |
| 2026-05-07 04:10 | 43.91022 | 141.52418 | 12002 ft | 155 kts | 309° |
| 2026-05-07 04:10 | 43.91902 | 141.51559 | 11987 ft | 154 kts | 309° |
| 2026-05-07 04:11 | 43.92778 | 141.50704 | 11988 ft | 153 kts | 309° |
| 2026-05-07 04:11 | 43.93650 | 141.49852 | 11988 ft | 153 kts | 309° |
| 2026-05-07 04:11 | 43.94508 | 141.49013 | 11992 ft | 153 kts | 308° |
| 2026-05-07 04:11 | 43.95376 | 141.48165 | 11990 ft | 152 kts | 308° |
| 2026-05-07 04:12 | 43.96242 | 141.47318 | 11988 ft | 152 kts | 308° |
| 2026-05-07 04:12 | 43.97107 | 141.46472 | 11991 ft | 152 kts | 308° |
| 2026-05-07 04:12 | 43.97972 | 141.45625 | 11991 ft | 152 kts | 308° |
| 2026-05-07 04:12 | 43.98835 | 141.44780 | 11987 ft | 151 kts | 308° |
| 2026-05-07 04:13 | 43.99697 | 141.43936 | 11993 ft | 151 kts | 308° |
| 2026-05-07 04:13 | 44.00555 | 141.43095 | 11990 ft | 151 kts | 308° |
| 2026-05-07 04:13 | 44.01414 | 141.42254 | 11989 ft | 151 kts | 308° |
| 2026-05-07 04:13 | 44.02271 | 141.41413 | 11989 ft | 151 kts | 308° |
| 2026-05-07 04:14 | 44.03128 | 141.40572 | 11987 ft | 151 kts | 308° |
| 2026-05-07 04:14 | 44.03986 | 141.39731 | 11989 ft | 151 kts | 308° |
| 2026-05-07 04:14 | 44.04842 | 141.38891 | 11990 ft | 151 kts | 308° |
| 2026-05-07 04:14 | 44.05699 | 141.38049 | 11991 ft | 151 kts | 308° |
| 2026-05-07 04:15 | 44.06560 | 141.37204 | 12000 ft | 152 kts | 308° |
| 2026-05-07 04:15 | 44.07428 | 141.36348 | 11999 ft | 154 kts | 308° |
| 2026-05-07 04:15 | 44.08312 | 141.35479 | 11995 ft | 157 kts | 308° |
| 2026-05-07 04:15 | 44.09204 | 141.34603 | 11996 ft | 157 kts | 308° |
| 2026-05-07 04:16 | 44.10094 | 141.33729 | 11997 ft | 156 kts | 308° |
| 2026-05-07 04:16 | 44.10976 | 141.32864 | 11995 ft | 154 kts | 308° |
| 2026-05-07 04:16 | 44.11848 | 141.32005 | 11992 ft | 152 kts | 308° |
| 2026-05-07 04:16 | 44.12710 | 141.31156 | 11990 ft | 151 kts | 308° |
| 2026-05-07 04:17 | 44.13567 | 141.30312 | 11992 ft | 151 kts | 308° |
| 2026-05-07 04:17 | 44.14420 | 141.29470 | 11989 ft | 150 kts | 308° |
| 2026-05-07 04:17 | 44.15271 | 141.28630 | 11989 ft | 150 kts | 308° |
| 2026-05-07 04:17 | 44.16120 | 141.27794 | 11987 ft | 149 kts | 307° |
| 2026-05-07 04:18 | 44.16966 | 141.26959 | 11986 ft | 149 kts | 307° |
| 2026-05-07 04:18 | 44.17812 | 141.26123 | 11985 ft | 149 kts | 307° |
| 2026-05-07 04:18 | 44.18659 | 141.25288 | 11986 ft | 149 kts | 307° |
| 2026-05-07 04:18 | 44.19495 | 141.24462 | 11985 ft | 149 kts | 307° |
| 2026-05-07 04:19 | 44.20341 | 141.23626 | 11984 ft | 149 kts | 307° |
| 2026-05-07 04:19 | 44.21153 | 141.22823 | 11986 ft | 149 kts | 307° |
| 2026-05-07 04:19 | 44.22006 | 141.21983 | 11987 ft | 149 kts | 308° |
| 2026-05-07 04:19 | 44.22857 | 141.21151 | 11989 ft | 149 kts | 308° |
| 2026-05-07 04:20 | 44.23710 | 141.20323 | 11990 ft | 149 kts | 308° |
| 2026-05-07 04:20 | 44.24569 | 141.19501 | 11990 ft | 150 kts | 308° |
| 2026-05-07 04:20 | 44.25440 | 141.18685 | 11987 ft | 152 kts | 309° |
| 2026-05-07 04:21 | 44.27224 | 141.17060 | 12055 ft | 152 kts | 311° |
| 2026-05-07 04:21 | 44.28143 | 141.16278 | 12005 ft | 157 kts | 313° |
| 2026-05-07 04:21 | 44.29104 | 141.15533 | 12037 ft | 158 kts | 316° |
| 2026-05-07 04:21 | 44.30101 | 141.14876 | 12054 ft | 160 kts | 320° |
| 2026-05-07 04:22 | 44.31168 | 141.14307 | 11998 ft | 168 kts | 324° |
| 2026-05-07 04:22 | 44.32305 | 141.13872 | 12024 ft | 171 kts | 331° |
| 2026-05-07 04:22 | 44.33499 | 141.13632 | 12047 ft | 176 kts | 339° |
| 2026-05-07 04:22 | 44.34760 | 141.13611 | 11992 ft | 186 kts | 347° |
| 2026-05-07 04:23 | 44.36057 | 141.13733 | 11977 ft | 177 kts | 337° |
| 2026-05-07 04:23 | 44.36963 | 141.13088 | 12242 ft | 124 kts | 298° |
| 2026-05-07 04:23 | 44.37527 | 141.12328 | 12629 ft | 105 kts | 297° |
| 2026-05-07 04:23 | 44.38065 | 141.11642 | 12760 ft | 105 kts | 297° |
| 2026-05-07 04:24 | 44.38602 | 141.10951 | 12883 ft | 105 kts | 297° |
| 2026-05-07 04:24 | 44.39141 | 141.10261 | 13000 ft | 105 kts | 296° |
| 2026-05-07 04:24 | 44.39678 | 141.09574 | 13110 ft | 105 kts | 297° |
| 2026-05-07 04:24 | 44.40216 | 141.08886 | 13213 ft | 105 kts | 297° |
| 2026-05-07 04:25 | 44.40739 | 141.08239 | 13461 ft | 94 kts | 296° |
| 2026-05-07 04:25 | 44.41241 | 141.07661 | 13601 ft | 94 kts | 297° |
| 2026-05-07 04:25 | 44.41744 | 141.07081 | 13717 ft | 94 kts | 297° |
| 2026-05-07 04:25 | 44.42246 | 141.06502 | 13833 ft | 94 kts | 296° |
| 2026-05-07 04:26 | 44.42743 | 141.05931 | 13957 ft | 93 kts | 296° |
| 2026-05-07 04:26 | 44.43246 | 141.05351 | 14065 ft | 96 kts | 296° |
| 2026-05-07 04:26 | 44.43773 | 141.04707 | 14090 ft | 104 kts | 297° |
| 2026-05-07 04:26 | 44.44313 | 141.04023 | 14199 ft | 104 kts | 296° |
| 2026-05-07 04:27 | 44.44852 | 141.03341 | 14312 ft | 105 kts | 296° |
| 2026-05-07 04:27 | 44.45211 | 141.02887 | 14374 ft | 105 kts | 297° |
| 2026-05-07 04:27 | 44.45752 | 141.02202 | 14468 ft | 105 kts | 296° |
| 2026-05-07 04:27 | 44.46295 | 141.01516 | 14563 ft | 105 kts | 296° |
| 2026-05-07 04:28 | 44.46838 | 141.00827 | 14681 ft | 106 kts | 297° |
| 2026-05-07 04:28 | 44.47384 | 141.00139 | 14798 ft | 106 kts | 297° |
| 2026-05-07 04:28 | 44.47932 | 140.99448 | 14917 ft | 106 kts | 297° |
| 2026-05-07 04:28 | 44.48480 | 140.98755 | 15037 ft | 106 kts | 296° |
| 2026-05-07 04:29 | 44.49027 | 140.98062 | 15149 ft | 106 kts | 297° |
| 2026-05-07 04:29 | 44.49610 | 140.97397 | 15252 ft | 109 kts | 300° |
| 2026-05-07 04:29 | 44.50206 | 140.96739 | 15351 ft | 109 kts | 300° |
| 2026-05-07 04:29 | 44.50835 | 140.96109 | 15449 ft | 117 kts | 308° |
| 2026-05-07 04:30 | 44.51570 | 140.95582 | 15545 ft | 119 kts | 309° |
| 2026-05-07 04:30 | 44.52310 | 140.95059 | 15643 ft | 119 kts | 309° |
| 2026-05-07 04:30 | 44.53049 | 140.94536 | 15744 ft | 119 kts | 309° |
| 2026-05-07 04:30 | 44.53791 | 140.94014 | 15839 ft | 119 kts | 309° |
| 2026-05-07 04:31 | 44.54535 | 140.93492 | 15936 ft | 119 kts | 310° |
| 2026-05-07 04:31 | 44.55281 | 140.92963 | 15981 ft | 122 kts | 309° |
| 2026-05-07 04:31 | 44.55999 | 140.92352 | 15985 ft | 112 kts | 295° |
| 2026-05-07 04:31 | 44.56479 | 140.91530 | 15991 ft | 109 kts | 290° |
| 2026-05-07 04:32 | 44.56946 | 140.90674 | 15995 ft | 112 kts | 289° |
| 2026-05-07 04:32 | 44.57419 | 140.89793 | 15997 ft | 114 kts | 289° |
| 2026-05-07 04:32 | 44.57889 | 140.88907 | 15990 ft | 115 kts | 289° |
| 2026-05-07 04:32 | 44.58367 | 140.87998 | 15997 ft | 116 kts | 290° |
| 2026-05-07 04:33 | 44.58850 | 140.87077 | 15988 ft | 117 kts | 289° |
| 2026-05-07 04:33 | 44.59257 | 140.86119 | 15992 ft | 110 kts | 279° |
| 2026-05-07 04:33 | 44.59605 | 140.85125 | 15989 ft | 118 kts | 285° |
| 2026-05-07 04:33 | 44.60116 | 140.84183 | 15992 ft | 128 kts | 298° |
| 2026-05-07 04:34 | 44.60814 | 140.83360 | 15991 ft | 132 kts | 302° |
| 2026-05-07 04:34 | 44.61552 | 140.82566 | 15993 ft | 134 kts | 303° |
| 2026-05-07 04:34 | 44.62310 | 140.81786 | 15991 ft | 135 kts | 304° |
| 2026-05-07 04:34 | 44.63075 | 140.81012 | 15992 ft | 136 kts | 304° |
| 2026-05-07 04:35 | 44.63842 | 140.80238 | 15993 ft | 135 kts | 304° |
| 2026-05-07 04:35 | 44.64611 | 140.79463 | 15991 ft | 136 kts | 304° |
| 2026-05-07 04:35 | 44.65384 | 140.78685 | 15991 ft | 137 kts | 304° |
| 2026-05-07 04:35 | 44.66158 | 140.77906 | 15991 ft | 136 kts | 304° |
| 2026-05-07 04:36 | 44.66928 | 140.77129 | 15991 ft | 136 kts | 304° |
| 2026-05-07 04:36 | 44.67700 | 140.76352 | 15991 ft | 136 kts | 304° |
| 2026-05-07 04:36 | 44.68470 | 140.75575 | 15991 ft | 136 kts | 304° |
| 2026-05-07 04:36 | 44.69241 | 140.74796 | 15993 ft | 137 kts | 304° |
| 2026-05-07 04:37 | 44.70010 | 140.74018 | 15992 ft | 139 kts | 304° |
| 2026-05-07 04:37 | 44.70800 | 140.73219 | 15992 ft | 141 kts | 305° |
| 2026-05-07 04:37 | 44.71600 | 140.72412 | 15992 ft | 141 kts | 305° |
| 2026-05-07 04:37 | 44.72396 | 140.71612 | 15991 ft | 140 kts | 305° |
| 2026-05-07 04:38 | 44.73182 | 140.70820 | 15984 ft | 138 kts | 304° |
| 2026-05-07 04:38 | 44.73959 | 140.70034 | 15983 ft | 137 kts | 304° |
| 2026-05-07 04:38 | 44.74730 | 140.69255 | 15980 ft | 136 kts | 304° |
| 2026-05-07 04:38 | 44.75492 | 140.68482 | 15978 ft | 135 kts | 304° |
| 2026-05-07 04:39 | 44.76254 | 140.67712 | 15978 ft | 134 kts | 304° |
| 2026-05-07 04:39 | 44.77011 | 140.66944 | 15986 ft | 134 kts | 304° |
| 2026-05-07 04:39 | 44.77769 | 140.66176 | 15986 ft | 134 kts | 304° |
| 2026-05-07 04:39 | 44.78524 | 140.65412 | 15982 ft | 133 kts | 304° |
| 2026-05-07 04:40 | 44.79274 | 140.64651 | 15981 ft | 133 kts | 304° |
| 2026-05-07 04:40 | 44.80026 | 140.63888 | 15982 ft | 133 kts | 304° |
| 2026-05-07 04:40 | 44.80777 | 140.63127 | 15981 ft | 133 kts | 304° |
| 2026-05-07 04:40 | 44.81514 | 140.62380 | 15979 ft | 132 kts | 304° |
| 2026-05-07 04:41 | 44.82257 | 140.61627 | 15976 ft | 131 kts | 303° |
| 2026-05-07 04:41 | 44.82995 | 140.60878 | 15978 ft | 130 kts | 303° |
| 2026-05-07 04:41 | 44.83729 | 140.60132 | 15972 ft | 130 kts | 303° |
| 2026-05-07 04:41 | 44.84462 | 140.59387 | 15971 ft | 130 kts | 303° |
| 2026-05-07 04:42 | 44.85193 | 140.58645 | 15968 ft | 129 kts | 303° |
| 2026-05-07 04:42 | 44.85923 | 140.57902 | 15972 ft | 129 kts | 303° |
| 2026-05-07 04:42 | 44.86655 | 140.57158 | 15970 ft | 129 kts | 303° |
| 2026-05-07 04:42 | 44.87385 | 140.56416 | 15967 ft | 129 kts | 303° |
| 2026-05-07 04:43 | 44.88113 | 140.55675 | 15971 ft | 128 kts | 303° |
| 2026-05-07 04:43 | 44.88837 | 140.54938 | 15969 ft | 128 kts | 303° |
| 2026-05-07 04:43 | 44.89560 | 140.54203 | 15974 ft | 128 kts | 303° |
| 2026-05-07 04:43 | 44.90278 | 140.53472 | 15970 ft | 127 kts | 303° |
| 2026-05-07 04:44 | 44.90997 | 140.52739 | 15969 ft | 127 kts | 303° |
| 2026-05-07 04:44 | 44.91710 | 140.52013 | 15974 ft | 126 kts | 303° |
| 2026-05-07 04:44 | 44.92421 | 140.51288 | 15970 ft | 126 kts | 303° |
| 2026-05-07 04:44 | 44.93120 | 140.50575 | 15970 ft | 125 kts | 303° |
| 2026-05-07 04:45 | 44.93826 | 140.49856 | 15990 ft | 125 kts | 302° |
| 2026-05-07 04:45 | 44.94534 | 140.49133 | 15983 ft | 125 kts | 302° |
| 2026-05-07 04:45 | 44.95241 | 140.48411 | 15983 ft | 125 kts | 302° |
| 2026-05-07 04:45 | 44.95947 | 140.47689 | 15981 ft | 125 kts | 302° |
| 2026-05-07 04:46 | 44.96655 | 140.46968 | 15979 ft | 125 kts | 302° |
| 2026-05-07 04:46 | 44.97360 | 140.46248 | 15977 ft | 125 kts | 302° |
| 2026-05-07 04:46 | 44.98063 | 140.45528 | 15969 ft | 125 kts | 302° |
| 2026-05-07 04:46 | 44.98807 | 140.44750 | 15731 ft | 141 kts | 305° |
| 2026-05-07 04:47 | 44.99634 | 140.43901 | 15498 ft | 152 kts | 307° |
| 2026-05-07 04:47 | 45.00512 | 140.43010 | 15268 ft | 159 kts | 308° |
| 2026-05-07 04:47 | 45.01421 | 140.42084 | 15038 ft | 163 kts | 308° |
| 2026-05-07 04:47 | 45.02356 | 140.41131 | 14808 ft | 167 kts | 309° |
| 2026-05-07 04:48 | 45.03296 | 140.40172 | 14580 ft | 170 kts | 310° |
| 2026-05-07 04:48 | 45.04258 | 140.39187 | 14342 ft | 172 kts | 310° |
| 2026-05-07 04:48 | 45.05230 | 140.38192 | 14113 ft | 173 kts | 311° |
| 2026-05-07 04:48 | 45.06210 | 140.37189 | 13880 ft | 174 kts | 311° |
| 2026-05-07 04:49 | 45.07196 | 140.36178 | 13642 ft | 175 kts | 311° |
| 2026-05-07 04:49 | 45.08183 | 140.35165 | 13382 ft | 175 kts | 311° |
| 2026-05-07 04:49 | 45.09173 | 140.34150 | 13118 ft | 176 kts | 312° |
| 2026-05-07 04:49 | 45.10167 | 140.33128 | 12855 ft | 177 kts | 312° |
| 2026-05-07 04:50 | 45.11163 | 140.32106 | 12677 ft | 175 kts | 311° |
| 2026-05-07 04:50 | 45.12139 | 140.31107 | 12544 ft | 171 kts | 311° |
| 2026-05-07 04:50 | 45.13094 | 140.30124 | 12412 ft | 169 kts | 311° |
| 2026-05-07 04:50 | 45.14040 | 140.29149 | 12276 ft | 168 kts | 311° |
| 2026-05-07 04:51 | 45.15001 | 140.28153 | 12019 ft | 173 kts | 311° |
| 2026-05-07 04:51 | 45.15987 | 140.27136 | 11767 ft | 177 kts | 312° |
| 2026-05-07 04:51 | 45.16991 | 140.26105 | 11517 ft | 179 kts | 313° |
| 2026-05-07 04:51 | 45.18000 | 140.25066 | 11270 ft | 180 kts | 313° |
| 2026-05-07 04:52 | 45.19004 | 140.24034 | 11138 ft | 176 kts | 313° |
| 2026-05-07 04:52 | 45.19979 | 140.23031 | 11014 ft | 174 kts | 313° |
| 2026-05-07 04:52 | 45.20951 | 140.22026 | 10888 ft | 172 kts | 312° |
| 2026-05-07 04:52 | 45.21918 | 140.21026 | 10763 ft | 172 kts | 312° |
| 2026-05-07 04:53 | 45.22884 | 140.20028 | 10639 ft | 171 kts | 313° |
| 2026-05-07 04:53 | 45.23844 | 140.19036 | 10517 ft | 171 kts | 313° |
| 2026-05-07 04:53 | 45.24805 | 140.18041 | 10392 ft | 171 kts | 313° |
| 2026-05-07 04:53 | 45.25767 | 140.17047 | 10273 ft | 171 kts | 313° |
| 2026-05-07 04:54 | 45.26728 | 140.16052 | 10152 ft | 171 kts | 313° |
| 2026-05-07 04:54 | 45.27694 | 140.15051 | 10033 ft | 172 kts | 313° |
| 2026-05-07 04:54 | 45.28654 | 140.14061 | 10015 ft | 168 kts | 315° |
| 2026-05-07 04:54 | 45.29591 | 140.13092 | 10002 ft | 165 kts | 314° |
| 2026-05-07 04:55 | 45.30509 | 140.12139 | 9999 ft | 162 kts | 314° |
| 2026-05-07 04:55 | 45.31420 | 140.11193 | 9997 ft | 161 kts | 314° |
| 2026-05-07 04:55 | 45.32314 | 140.10264 | 9996 ft | 161 kts | 314° |
| 2026-05-07 04:55 | 45.33228 | 140.09315 | 9995 ft | 161 kts | 314° |
| 2026-05-07 04:56 | 45.34121 | 140.08389 | 9994 ft | 161 kts | 314° |
| 2026-05-07 04:56 | 45.35024 | 140.07450 | 9994 ft | 161 kts | 314° |
| 2026-05-07 04:56 | 45.35931 | 140.06508 | 9991 ft | 161 kts | 314° |
| 2026-05-07 04:56 | 45.36838 | 140.05566 | 9991 ft | 161 kts | 314° |
| 2026-05-07 04:57 | 45.37746 | 140.04621 | 9992 ft | 161 kts | 314° |
| 2026-05-07 04:57 | 45.38654 | 140.03676 | 9992 ft | 161 kts | 314° |
| 2026-05-07 04:57 | 45.39562 | 140.02732 | 9992 ft | 162 kts | 314° |
| 2026-05-07 04:57 | 45.40472 | 140.01784 | 9992 ft | 162 kts | 314° |
| 2026-05-07 04:58 | 45.41381 | 140.00837 | 9992 ft | 162 kts | 314° |
| 2026-05-07 04:58 | 45.42294 | 139.99886 | 9992 ft | 162 kts | 314° |
| 2026-05-07 04:58 | 45.43203 | 139.98938 | 9993 ft | 162 kts | 314° |
| 2026-05-07 04:58 | 45.44113 | 139.97990 | 9993 ft | 162 kts | 314° |
| 2026-05-07 04:59 | 45.45019 | 139.97045 | 9993 ft | 161 kts | 314° |
| 2026-05-07 04:59 | 45.45923 | 139.96102 | 9992 ft | 161 kts | 314° |
| 2026-05-07 04:59 | 45.46829 | 139.95160 | 10003 ft | 161 kts | 316° |
| 2026-05-07 04:59 | 45.47425 | 139.94534 | 10003 ft | 161 kts | 316° |
| 2026-05-07 05:00 | 45.48329 | 139.93589 | 10003 ft | 161 kts | 317° |
| 2026-05-07 05:00 | 45.49527 | 139.92339 | 10003 ft | 161 kts | 316° |
| 2026-05-07 05:00 | 45.50428 | 139.91394 | 10000 ft | 161 kts | 316° |
| 2026-05-07 05:00 | 45.51037 | 139.90756 | 10000 ft | 161 kts | 316° |
| 2026-05-07 05:01 | 45.51941 | 139.89810 | 9998 ft | 161 kts | 316° |
| 2026-05-07 05:01 | 45.52834 | 139.88876 | 9998 ft | 161 kts | 316° |
| 2026-05-07 05:01 | 45.53739 | 139.87928 | 9998 ft | 161 kts | 316° |
| 2026-05-07 05:01 | 45.54643 | 139.86980 | 9998 ft | 161 kts | 316° |
| 2026-05-07 05:02 | 45.55546 | 139.86034 | 9998 ft | 161 kts | 316° |
| 2026-05-07 05:02 | 45.56449 | 139.85088 | 9998 ft | 161 kts | 316° |
| 2026-05-07 05:02 | 45.57352 | 139.84140 | 9995 ft | 161 kts | 316° |
| 2026-05-07 05:02 | 45.58253 | 139.83194 | 9995 ft | 161 kts | 316° |
| 2026-05-07 05:03 | 45.59156 | 139.82247 | 9995 ft | 161 kts | 316° |
| 2026-05-07 05:03 | 45.60059 | 139.81298 | 9995 ft | 161 kts | 316° |
| 2026-05-07 05:03 | 45.60960 | 139.80351 | 9995 ft | 161 kts | 316° |
| 2026-05-07 05:03 | 45.61863 | 139.79403 | 9995 ft | 161 kts | 316° |
| 2026-05-07 05:04 | 45.62766 | 139.78453 | 9998 ft | 161 kts | 316° |
| 2026-05-07 05:04 | 45.63658 | 139.77513 | 9998 ft | 161 kts | 316° |
| 2026-05-07 05:04 | 45.64574 | 139.76546 | 9997 ft | 162 kts | 319° |
| 2026-05-07 05:04 | 45.65473 | 139.75602 | 9997 ft | 163 kts | 319° |
| 2026-05-07 05:05 | 45.66386 | 139.74641 | 9998 ft | 163 kts | 319° |
| 2026-05-07 05:05 | 45.67300 | 139.73678 | 9998 ft | 163 kts | 319° |
| 2026-05-07 05:05 | 45.68212 | 139.72716 | 9998 ft | 163 kts | 319° |
| 2026-05-07 05:05 | 45.69126 | 139.71753 | 9999 ft | 163 kts | 319° |
| 2026-05-07 05:06 | 45.70041 | 139.70788 | 9996 ft | 163 kts | 319° |
| 2026-05-07 05:06 | 45.70956 | 139.69821 | 9996 ft | 163 kts | 319° |
| 2026-05-07 05:06 | 45.71868 | 139.68859 | 9996 ft | 163 kts | 319° |
| 2026-05-07 05:06 | 45.72783 | 139.67892 | 9996 ft | 163 kts | 319° |
| 2026-05-07 05:07 | 45.73696 | 139.66927 | 9996 ft | 163 kts | 319° |
| 2026-05-07 05:07 | 45.74611 | 139.65959 | 9996 ft | 163 kts | 319° |
| 2026-05-07 05:07 | 45.75523 | 139.64995 | 9996 ft | 163 kts | 319° |
| 2026-05-07 05:07 | 45.76426 | 139.64040 | 9996 ft | 163 kts | 319° |
| 2026-05-07 05:08 | 45.77338 | 139.63074 | 9996 ft | 163 kts | 319° |
| 2026-05-07 05:08 | 45.78253 | 139.62106 | 9993 ft | 163 kts | 319° |
| 2026-05-07 05:08 | 45.79165 | 139.61139 | 9993 ft | 163 kts | 319° |
| 2026-05-07 05:08 | 45.80079 | 139.60169 | 9993 ft | 163 kts | 319° |
| 2026-05-07 05:09 | 45.80993 | 139.59201 | 9993 ft | 163 kts | 319° |
| 2026-05-07 05:09 | 45.81908 | 139.58230 | 9994 ft | 164 kts | 319° |
| 2026-05-07 05:09 | 45.82824 | 139.57258 | 9992 ft | 164 kts | 319° |
| 2026-05-07 05:09 | 45.83741 | 139.56285 | 9993 ft | 164 kts | 319° |
| 2026-05-07 05:10 | 45.84659 | 139.55310 | 9989 ft | 164 kts | 319° |
| 2026-05-07 05:10 | 45.85576 | 139.54335 | 9986 ft | 164 kts | 319° |
| 2026-05-07 05:10 | 45.86493 | 139.53360 | 9986 ft | 164 kts | 319° |
| 2026-05-07 05:10 | 45.87409 | 139.52387 | 9988 ft | 164 kts | 319° |
| 2026-05-07 05:11 | 45.88326 | 139.51411 | 9986 ft | 164 kts | 319° |
| 2026-05-07 05:11 | 45.89242 | 139.50434 | 9988 ft | 164 kts | 319° |
| 2026-05-07 05:11 | 45.90159 | 139.49459 | 9987 ft | 164 kts | 319° |
| 2026-05-07 05:11 | 45.91076 | 139.48482 | 9988 ft | 164 kts | 319° |
| 2026-05-07 05:12 | 45.91993 | 139.47505 | 9986 ft | 164 kts | 319° |
| 2026-05-07 05:12 | 45.92907 | 139.46530 | 9982 ft | 164 kts | 319° |
| 2026-05-07 05:12 | 45.93823 | 139.45553 | 9980 ft | 164 kts | 319° |
| 2026-05-07 05:12 | 45.94727 | 139.44588 | 9981 ft | 164 kts | 319° |
| 2026-05-07 05:13 | 45.95645 | 139.43609 | 9983 ft | 164 kts | 319° |
| 2026-05-07 05:13 | 45.96561 | 139.42630 | 9980 ft | 164 kts | 319° |
| 2026-05-07 05:13 | 45.97478 | 139.41650 | 9981 ft | 164 kts | 319° |
| 2026-05-07 05:13 | 45.98393 | 139.40672 | 9982 ft | 164 kts | 319° |
| 2026-05-07 05:14 | 45.99309 | 139.39693 | 9980 ft | 164 kts | 319° |
| 2026-05-07 05:14 | 46.00227 | 139.38713 | 9967 ft | 163 kts | 319° |
| 2026-05-07 05:14 | 46.01137 | 139.37738 | 9967 ft | 163 kts | 319° |
| 2026-05-07 05:14 | 46.02044 | 139.36765 | 9967 ft | 162 kts | 319° |
| 2026-05-07 05:15 | 46.02938 | 139.35809 | 9969 ft | 162 kts | 319° |
| 2026-05-07 05:15 | 46.03843 | 139.34839 | 9969 ft | 162 kts | 319° |
| 2026-05-07 05:15 | 46.04747 | 139.33870 | 9969 ft | 162 kts | 319° |
| 2026-05-07 05:15 | 46.05652 | 139.32899 | 9970 ft | 162 kts | 319° |
| 2026-05-07 05:16 | 46.06555 | 139.31931 | 9967 ft | 162 kts | 319° |
| 2026-05-07 05:16 | 46.07460 | 139.30958 | 9969 ft | 162 kts | 319° |
| 2026-05-07 05:16 | 46.08364 | 139.29988 | 9966 ft | 162 kts | 319° |
| 2026-05-07 05:16 | 46.09269 | 139.29016 | 9966 ft | 162 kts | 319° |
| 2026-05-07 05:17 | 46.10172 | 139.28046 | 9971 ft | 162 kts | 319° |
| 2026-05-07 05:17 | 46.11076 | 139.27073 | 9971 ft | 162 kts | 319° |
| 2026-05-07 05:17 | 46.11980 | 139.26101 | 9969 ft | 162 kts | 319° |
| 2026-05-07 05:17 | 46.12883 | 139.25130 | 9969 ft | 162 kts | 319° |
| 2026-05-07 05:18 | 46.13787 | 139.24156 | 9963 ft | 162 kts | 319° |
| 2026-05-07 05:18 | 46.14691 | 139.23182 | 9964 ft | 162 kts | 319° |
| 2026-05-07 05:18 | 46.15596 | 139.22208 | 9964 ft | 162 kts | 319° |
| 2026-05-07 05:18 | 46.16489 | 139.21245 | 9966 ft | 162 kts | 319° |
| 2026-05-07 05:19 | 46.17394 | 139.20269 | 9963 ft | 162 kts | 319° |
| 2026-05-07 05:19 | 46.18298 | 139.19294 | 9963 ft | 162 kts | 319° |
| 2026-05-07 05:19 | 46.19203 | 139.18318 | 9964 ft | 162 kts | 319° |
| 2026-05-07 05:19 | 46.20107 | 139.17341 | 9965 ft | 162 kts | 319° |
| 2026-05-07 05:20 | 46.21010 | 139.16366 | 9960 ft | 162 kts | 319° |
| 2026-05-07 05:20 | 46.21914 | 139.15389 | 9958 ft | 162 kts | 319° |
| 2026-05-07 05:20 | 46.22819 | 139.14410 | 9958 ft | 163 kts | 319° |
| 2026-05-07 05:20 | 46.23725 | 139.13430 | 9962 ft | 162 kts | 318° |
| 2026-05-07 05:21 | 46.24627 | 139.12455 | 9968 ft | 162 kts | 318° |
| 2026-05-07 05:21 | 46.26427 | 139.10506 | 9970 ft | 161 kts | 319° |
| 2026-05-07 05:21 | 46.27314 | 139.09545 | 9968 ft | 162 kts | 319° |
| 2026-05-07 05:22 | 46.28215 | 139.08569 | 9966 ft | 161 kts | 319° |
| 2026-05-07 05:22 | 46.29113 | 139.07595 | 9965 ft | 161 kts | 319° |
| 2026-05-07 05:22 | 46.30011 | 139.06622 | 9966 ft | 161 kts | 319° |
| 2026-05-07 05:22 | 46.30908 | 139.05648 | 9965 ft | 161 kts | 319° |
| 2026-05-07 05:23 | 46.31807 | 139.04671 | 9965 ft | 161 kts | 318° |
| 2026-05-07 05:23 | 46.32704 | 139.03697 | 9967 ft | 161 kts | 318° |
| 2026-05-07 05:23 | 46.33603 | 139.02721 | 9965 ft | 161 kts | 319° |
| 2026-05-07 05:23 | 46.34500 | 139.01746 | 9967 ft | 161 kts | 319° |
| 2026-05-07 05:24 | 46.35397 | 139.00770 | 9968 ft | 161 kts | 319° |
| 2026-05-07 05:24 | 46.36295 | 138.99793 | 9967 ft | 161 kts | 319° |
| 2026-05-07 05:24 | 46.37191 | 138.98819 | 9967 ft | 161 kts | 319° |
| 2026-05-07 05:24 | 46.38086 | 138.97844 | 9966 ft | 161 kts | 319° |
| 2026-05-07 05:25 | 46.38970 | 138.96880 | 9968 ft | 161 kts | 319° |
| 2026-05-07 05:25 | 46.39866 | 138.95904 | 9967 ft | 161 kts | 319° |
| 2026-05-07 05:25 | 46.40762 | 138.94929 | 9970 ft | 161 kts | 319° |
| 2026-05-07 05:25 | 46.41657 | 138.93951 | 9969 ft | 161 kts | 319° |
| 2026-05-07 05:26 | 46.42551 | 138.92976 | 9960 ft | 161 kts | 319° |
| 2026-05-07 05:26 | 46.43445 | 138.92001 | 9960 ft | 161 kts | 319° |
| 2026-05-07 05:26 | 46.44340 | 138.91023 | 9960 ft | 161 kts | 319° |
| 2026-05-07 05:26 | 46.45235 | 138.90045 | 9960 ft | 161 kts | 319° |
| 2026-05-07 05:27 | 46.46130 | 138.89068 | 9961 ft | 161 kts | 319° |
| 2026-05-07 05:27 | 46.47023 | 138.88091 | 9961 ft | 161 kts | 319° |
| 2026-05-07 05:27 | 46.47917 | 138.87113 | 9961 ft | 161 kts | 319° |
| 2026-05-07 05:27 | 46.48809 | 138.86136 | 9961 ft | 161 kts | 319° |
| 2026-05-07 05:28 | 46.49702 | 138.85160 | 9959 ft | 161 kts | 319° |
| 2026-05-07 05:28 | 46.50583 | 138.84194 | 9961 ft | 161 kts | 319° |
| 2026-05-07 05:28 | 46.51477 | 138.83214 | 9960 ft | 161 kts | 319° |
| 2026-05-07 05:28 | 46.52370 | 138.82236 | 9960 ft | 161 kts | 319° |
| 2026-05-07 05:29 | 46.53264 | 138.81256 | 9958 ft | 161 kts | 319° |
| 2026-05-07 05:29 | 46.54158 | 138.80275 | 9957 ft | 161 kts | 319° |
| 2026-05-07 05:29 | 46.55051 | 138.79295 | 9957 ft | 161 kts | 319° |
| 2026-05-07 05:29 | 46.55946 | 138.78312 | 9956 ft | 161 kts | 319° |
| 2026-05-07 05:30 | 46.56842 | 138.77327 | 9956 ft | 161 kts | 319° |
| 2026-05-07 05:30 | 46.57737 | 138.76344 | 9958 ft | 161 kts | 319° |
| 2026-05-07 05:30 | 46.58633 | 138.75359 | 9958 ft | 161 kts | 319° |
| 2026-05-07 05:30 | 46.59528 | 138.74374 | 9956 ft | 161 kts | 319° |
| 2026-05-07 05:31 | 46.60425 | 138.73387 | 9956 ft | 161 kts | 319° |
| 2026-05-07 05:31 | 46.61321 | 138.72402 | 9956 ft | 161 kts | 319° |
| 2026-05-07 05:31 | 46.62217 | 138.71415 | 9958 ft | 161 kts | 319° |
| 2026-05-07 05:31 | 46.63103 | 138.70438 | 9956 ft | 161 kts | 319° |
| 2026-05-07 05:32 | 46.64000 | 138.69449 | 9960 ft | 161 kts | 319° |
| 2026-05-07 05:32 | 46.64896 | 138.68461 | 9952 ft | 161 kts | 319° |
| 2026-05-07 05:32 | 46.65791 | 138.67474 | 9950 ft | 161 kts | 319° |
| 2026-05-07 05:32 | 46.66686 | 138.66486 | 9950 ft | 161 kts | 319° |
| 2026-05-07 05:33 | 46.67580 | 138.65499 | 9951 ft | 161 kts | 319° |
| 2026-05-07 05:33 | 46.68478 | 138.64508 | 9953 ft | 162 kts | 319° |
| 2026-05-07 05:33 | 46.69071 | 138.63852 | 9953 ft | 162 kts | 319° |
| 2026-05-07 05:33 | 46.69968 | 138.62861 | 9950 ft | 162 kts | 319° |
| 2026-05-07 05:34 | 46.70863 | 138.61870 | 9950 ft | 162 kts | 319° |
| 2026-05-07 05:34 | 46.71761 | 138.60878 | 9947 ft | 162 kts | 320° |
| 2026-05-07 05:34 | 46.72658 | 138.59885 | 9946 ft | 162 kts | 320° |
| 2026-05-07 05:34 | 46.73558 | 138.58889 | 9945 ft | 162 kts | 320° |
| 2026-05-07 05:35 | 46.74457 | 138.57892 | 9944 ft | 162 kts | 320° |
| 2026-05-07 05:35 | 46.75357 | 138.56896 | 9942 ft | 162 kts | 320° |
| 2026-05-07 05:35 | 46.76258 | 138.55897 | 9944 ft | 162 kts | 320° |
| 2026-05-07 05:35 | 46.77159 | 138.54897 | 9945 ft | 162 kts | 320° |
| 2026-05-07 05:36 | 46.78059 | 138.53899 | 9942 ft | 162 kts | 320° |
| 2026-05-07 05:36 | 46.78957 | 138.52901 | 9939 ft | 162 kts | 320° |
| 2026-05-07 05:36 | 46.79857 | 138.51902 | 9940 ft | 162 kts | 320° |
| 2026-05-07 05:36 | 46.80758 | 138.50901 | 9939 ft | 162 kts | 320° |
| 2026-05-07 05:37 | 46.81659 | 138.49900 | 9937 ft | 162 kts | 320° |
| 2026-05-07 05:37 | 46.82558 | 138.48899 | 9937 ft | 163 kts | 320° |
| 2026-05-07 05:37 | 46.83459 | 138.47897 | 9937 ft | 163 kts | 320° |
| 2026-05-07 05:37 | 46.84350 | 138.46906 | 9938 ft | 163 kts | 320° |
| 2026-05-07 05:38 | 46.85262 | 138.45886 | 9941 ft | 163 kts | 320° |
| 2026-05-07 05:38 | 46.86158 | 138.44892 | 9933 ft | 164 kts | 320° |
| 2026-05-07 05:38 | 46.87068 | 138.43879 | 9934 ft | 165 kts | 320° |
| 2026-05-07 05:38 | 46.87983 | 138.42859 | 9930 ft | 165 kts | 320° |
| 2026-05-07 05:39 | 46.88890 | 138.41847 | 9935 ft | 164 kts | 320° |
| 2026-05-07 05:39 | 46.89796 | 138.40835 | 9929 ft | 164 kts | 320° |
| 2026-05-07 05:39 | 46.90707 | 138.39819 | 9932 ft | 166 kts | 320° |
| 2026-05-07 05:39 | 46.91628 | 138.38789 | 9928 ft | 166 kts | 320° |
| 2026-05-07 05:40 | 46.92550 | 138.37757 | 9929 ft | 167 kts | 320° |
| 2026-05-07 05:40 | 46.93473 | 138.36734 | 9925 ft | 167 kts | 319° |
| 2026-05-07 05:40 | 46.94393 | 138.35696 | 9926 ft | 167 kts | 320° |
| 2026-05-07 05:40 | 46.95319 | 138.34656 | 9926 ft | 168 kts | 320° |
| 2026-05-07 05:41 | 46.96249 | 138.33620 | 9925 ft | 168 kts | 320° |
| 2026-05-07 05:41 | 46.97180 | 138.32582 | 9927 ft | 168 kts | 319° |
| 2026-05-07 05:41 | 46.98101 | 138.31551 | 9925 ft | 168 kts | 320° |
| 2026-05-07 05:41 | 46.99026 | 138.30511 | 9925 ft | 167 kts | 319° |
| 2026-05-07 05:42 | 46.99946 | 138.29476 | 9927 ft | 167 kts | 320° |
| 2026-05-07 05:42 | 47.00868 | 138.28444 | 9918 ft | 166 kts | 320° |
| 2026-05-07 05:42 | 47.01785 | 138.27414 | 9919 ft | 166 kts | 320° |
| 2026-05-07 05:42 | 47.02706 | 138.26382 | 9919 ft | 166 kts | 319° |
| 2026-05-07 05:43 | 47.03625 | 138.25348 | 9919 ft | 167 kts | 319° |
| 2026-05-07 05:43 | 47.04545 | 138.24311 | 9921 ft | 166 kts | 320° |
| 2026-05-07 05:43 | 47.05469 | 138.23274 | 9926 ft | 167 kts | 320° |
| 2026-05-07 05:43 | 47.06388 | 138.22244 | 9930 ft | 166 kts | 319° |
| 2026-05-07 05:44 | 47.07306 | 138.21204 | 9927 ft | 167 kts | 319° |
| 2026-05-07 05:44 | 47.08231 | 138.20164 | 9923 ft | 168 kts | 319° |
| 2026-05-07 05:44 | 47.09153 | 138.19126 | 9922 ft | 166 kts | 317° |
| 2026-05-07 05:44 | 47.10068 | 138.18094 | 9920 ft | 165 kts | 319° |
| 2026-05-07 05:45 | 47.10978 | 138.17078 | 9919 ft | 163 kts | 319° |
| 2026-05-07 05:45 | 47.11880 | 138.16067 | 9920 ft | 163 kts | 318° |
| 2026-05-07 05:45 | 47.12773 | 138.15034 | 9927 ft | 164 kts | 318° |
| 2026-05-07 05:45 | 47.13683 | 138.14032 | 9922 ft | 162 kts | 319° |
| 2026-05-07 05:46 | 47.14562 | 138.13033 | 9920 ft | 161 kts | 317° |
| 2026-05-07 05:46 | 47.15443 | 138.12025 | 9921 ft | 160 kts | 317° |
| 2026-05-07 05:46 | 47.16331 | 138.11014 | 9922 ft | 162 kts | 319° |
| 2026-05-07 05:46 | 47.17228 | 138.10013 | 9924 ft | 163 kts | 319° |
| 2026-05-07 05:47 | 47.18134 | 138.08994 | 9928 ft | 165 kts | 319° |
| 2026-05-07 05:47 | 47.19042 | 138.07963 | 9926 ft | 164 kts | 318° |
| 2026-05-07 05:47 | 47.19951 | 138.06954 | 9923 ft | 164 kts | 319° |
| 2026-05-07 05:47 | 47.20851 | 138.05915 | 9925 ft | 163 kts | 318° |
| 2026-05-07 05:48 | 47.21753 | 138.04884 | 9920 ft | 165 kts | 318° |
| 2026-05-07 05:48 | 47.22663 | 138.03849 | 9914 ft | 164 kts | 318° |
| 2026-05-07 05:48 | 47.23552 | 138.02834 | 9920 ft | 162 kts | 319° |
| 2026-05-07 05:48 | 47.24451 | 138.01830 | 9920 ft | 162 kts | 318° |
| 2026-05-07 05:49 | 47.25346 | 138.00815 | 9918 ft | 162 kts | 317° |
| 2026-05-07 05:49 | 47.26241 | 137.99798 | 9922 ft | 163 kts | 318° |
| 2026-05-07 05:49 | 47.27128 | 137.98791 | 9924 ft | 163 kts | 319° |
| 2026-05-07 05:49 | 47.28020 | 137.97773 | 9925 ft | 161 kts | 317° |
| 2026-05-07 05:50 | 47.28909 | 137.96764 | 9925 ft | 161 kts | 317° |
| 2026-05-07 05:50 | 47.29794 | 137.95759 | 9927 ft | 161 kts | 317° |
| 2026-05-07 05:50 | 47.30674 | 137.94756 | 9925 ft | 158 kts | 317° |
| 2026-05-07 05:50 | 47.31539 | 137.93770 | 9927 ft | 157 kts | 316° |
| 2026-05-07 05:51 | 47.32405 | 137.92784 | 9927 ft | 159 kts | 318° |
| 2026-05-07 05:51 | 47.33282 | 137.91782 | 9924 ft | 160 kts | 319° |
| 2026-05-07 05:51 | 47.34166 | 137.90773 | 9924 ft | 161 kts | 318° |
| 2026-05-07 05:51 | 47.35055 | 137.89763 | 9926 ft | 160 kts | 316° |
| 2026-05-07 05:52 | 47.35937 | 137.88756 | 9925 ft | 159 kts | 316° |
| 2026-05-07 05:52 | 47.36805 | 137.87764 | 9922 ft | 157 kts | 318° |
| 2026-05-07 05:52 | 47.37669 | 137.86771 | 9929 ft | 162 kts | 318° |
| 2026-05-07 05:52 | 47.38567 | 137.85752 | 9924 ft | 162 kts | 319° |
| 2026-05-07 05:53 | 47.39460 | 137.84735 | 9928 ft | 162 kts | 317° |
| 2026-05-07 05:53 | 47.40356 | 137.83701 | 9931 ft | 164 kts | 319° |
| 2026-05-07 05:53 | 47.41259 | 137.82677 | 9937 ft | 163 kts | 317° |
| 2026-05-07 05:53 | 47.42154 | 137.81651 | 9936 ft | 162 kts | 316° |
| 2026-05-07 05:54 | 47.43046 | 137.80620 | 9934 ft | 163 kts | 317° |
| 2026-05-07 05:54 | 47.43950 | 137.79588 | 9935 ft | 164 kts | 316° |
| 2026-05-07 05:54 | 47.44845 | 137.78560 | 9945 ft | 163 kts | 316° |
| 2026-05-07 05:54 | 47.45749 | 137.77536 | 9945 ft | 164 kts | 318° |
| 2026-05-07 05:55 | 47.46656 | 137.76493 | 9945 ft | 164 kts | 316° |
| 2026-05-07 05:55 | 47.47553 | 137.75455 | 9948 ft | 163 kts | 316° |
| 2026-05-07 05:55 | 47.48449 | 137.74424 | 9948 ft | 163 kts | 318° |
| 2026-05-07 05:55 | 47.49350 | 137.73391 | 9944 ft | 164 kts | 318° |
| 2026-05-07 05:56 | 47.50246 | 137.72362 | 9943 ft | 164 kts | 316° |
| 2026-05-07 05:56 | 47.51144 | 137.71331 | 9943 ft | 162 kts | 316° |
| 2026-05-07 05:56 | 47.52040 | 137.70301 | 9947 ft | 164 kts | 316° |
| 2026-05-07 05:56 | 47.52946 | 137.69260 | 9948 ft | 165 kts | 317° |
| 2026-05-07 05:57 | 47.53853 | 137.68218 | 9943 ft | 165 kts | 317° |
| 2026-05-07 05:57 | 47.54755 | 137.67181 | 9942 ft | 164 kts | 317° |
| 2026-05-07 05:57 | 47.55654 | 137.66130 | 9937 ft | 165 kts | 316° |
| 2026-05-07 05:57 | 47.56561 | 137.65079 | 9940 ft | 166 kts | 317° |
| 2026-05-07 05:58 | 47.57477 | 137.64039 | 9950 ft | 166 kts | 317° |
| 2026-05-07 05:58 | 47.58395 | 137.62974 | 9948 ft | 169 kts | 317° |
| 2026-05-07 05:58 | 47.59319 | 137.61910 | 9945 ft | 168 kts | 317° |
| 2026-05-07 05:58 | 47.60238 | 137.60854 | 9954 ft | 166 kts | 316° |
| 2026-05-07 05:59 | 47.61144 | 137.59802 | 9951 ft | 165 kts | 316° |
| 2026-05-07 05:59 | 47.62053 | 137.58765 | 9947 ft | 163 kts | 316° |
| 2026-05-07 05:59 | 47.62941 | 137.57720 | 9949 ft | 164 kts | 317° |
| 2026-05-07 05:59 | 47.63840 | 137.56677 | 9949 ft | 163 kts | 318° |
| 2026-05-07 06:00 | 47.64723 | 137.55654 | 9946 ft | 163 kts | 318° |
| 2026-05-07 06:00 | 47.65612 | 137.54629 | 9945 ft | 161 kts | 317° |
| 2026-05-07 06:00 | 47.66491 | 137.53612 | 9945 ft | 159 kts | 316° |
| 2026-05-07 06:00 | 47.67363 | 137.52594 | 9950 ft | 160 kts | 318° |
| 2026-05-07 06:01 | 47.68251 | 137.51576 | 9951 ft | 161 kts | 317° |
| 2026-05-07 06:01 | 47.69139 | 137.50544 | 9954 ft | 163 kts | 317° |
| 2026-05-07 06:01 | 47.70035 | 137.49501 | 9956 ft | 165 kts | 317° |
| 2026-05-07 06:01 | 47.70939 | 137.48452 | 9957 ft | 166 kts | 318° |
| 2026-05-07 06:02 | 47.71852 | 137.47391 | 9954 ft | 165 kts | 317° |
| 2026-05-07 06:02 | 47.72753 | 137.46350 | 9958 ft | 164 kts | 317° |
| 2026-05-07 06:02 | 47.73651 | 137.45301 | 9957 ft | 164 kts | 317° |
| 2026-05-07 06:02 | 47.74556 | 137.44250 | 9957 ft | 164 kts | 316° |
| 2026-05-07 06:03 | 47.75452 | 137.43200 | 9961 ft | 164 kts | 318° |
| 2026-05-07 06:03 | 47.76341 | 137.42160 | 9961 ft | 164 kts | 317° |
| 2026-05-07 06:03 | 47.77241 | 137.41118 | 9959 ft | 164 kts | 317° |
| 2026-05-07 06:03 | 47.78134 | 137.40077 | 9965 ft | 162 kts | 317° |
| 2026-05-07 06:04 | 47.79032 | 137.39045 | 9949 ft | 163 kts | 317° |
| 2026-05-07 06:04 | 47.79920 | 137.37995 | 9945 ft | 162 kts | 318° |
| 2026-05-07 06:04 | 47.80811 | 137.36954 | 9946 ft | 163 kts | 318° |
| 2026-05-07 06:04 | 47.81703 | 137.35910 | 9958 ft | 163 kts | 317° |
| 2026-05-07 06:05 | 47.82603 | 137.34871 | 9960 ft | 164 kts | 318° |
| 2026-05-07 06:05 | 47.83505 | 137.33816 | 9956 ft | 165 kts | 318° |
| 2026-05-07 06:05 | 47.84411 | 137.32748 | 9957 ft | 166 kts | 318° |
| 2026-05-07 06:05 | 47.85012 | 137.32041 | 9957 ft | 167 kts | 318° |
| 2026-05-07 06:06 | 47.85926 | 137.30967 | 9960 ft | 167 kts | 318° |
| 2026-05-07 06:06 | 47.87148 | 137.29556 | 9962 ft | 167 kts | 317° |
| 2026-05-07 06:06 | 47.88054 | 137.28491 | 9960 ft | 164 kts | 316° |
| 2026-05-07 06:06 | 47.88657 | 137.27781 | 9963 ft | 163 kts | 318° |
| 2026-05-07 06:07 | 47.89552 | 137.26730 | 9959 ft | 164 kts | 318° |
| 2026-05-07 06:07 | 47.90445 | 137.25683 | 9962 ft | 165 kts | 316° |
| 2026-05-07 06:07 | 47.91349 | 137.24612 | 9965 ft | 162 kts | 316° |
| 2026-05-07 06:07 | 47.92232 | 137.23591 | 9959 ft | 163 kts | 317° |
| 2026-05-07 06:08 | 47.93127 | 137.22534 | 9964 ft | 164 kts | 316° |
| 2026-05-07 06:08 | 47.94021 | 137.21492 | 9968 ft | 161 kts | 317° |
| 2026-05-07 06:08 | 47.94913 | 137.20451 | 9957 ft | 163 kts | 317° |
| 2026-05-07 06:08 | 47.95802 | 137.19392 | 9958 ft | 165 kts | 316° |
| 2026-05-07 06:09 | 47.96699 | 137.18328 | 9954 ft | 164 kts | 316° |
| 2026-05-07 06:09 | 47.97593 | 137.17283 | 9958 ft | 164 kts | 318° |
| 2026-05-07 06:09 | 47.98499 | 137.16229 | 9962 ft | 166 kts | 318° |
| 2026-05-07 06:09 | 47.99411 | 137.15156 | 9964 ft | 168 kts | 318° |
| 2026-05-07 06:10 | 48.00325 | 137.14060 | 9959 ft | 168 kts | 317° |
| 2026-05-07 06:10 | 48.01242 | 137.12973 | 9960 ft | 169 kts | 318° |
| 2026-05-07 06:10 | 48.02149 | 137.11913 | 9959 ft | 166 kts | 317° |
| 2026-05-07 06:10 | 48.03049 | 137.10847 | 9955 ft | 164 kts | 316° |
| 2026-05-07 06:11 | 48.03946 | 137.09798 | 9961 ft | 164 kts | 318° |
| 2026-05-07 06:11 | 48.04844 | 137.08723 | 9963 ft | 166 kts | 317° |
| 2026-05-07 06:11 | 48.05759 | 137.07652 | 9962 ft | 166 kts | 316° |
| 2026-05-07 06:11 | 48.06664 | 137.06583 | 9964 ft | 165 kts | 316° |
| 2026-05-07 06:12 | 48.07562 | 137.05516 | 9961 ft | 164 kts | 316° |
| 2026-05-07 06:12 | 48.08461 | 137.04457 | 9961 ft | 164 kts | 316° |
| 2026-05-07 06:12 | 48.09359 | 137.03394 | 9962 ft | 164 kts | 316° |
| 2026-05-07 06:12 | 48.10261 | 137.02327 | 9958 ft | 165 kts | 316° |
| 2026-05-07 06:13 | 48.11153 | 137.01256 | 9961 ft | 164 kts | 316° |
| 2026-05-07 06:13 | 48.12048 | 137.00203 | 9965 ft | 163 kts | 316° |
| 2026-05-07 06:13 | 48.12939 | 136.99149 | 9962 ft | 163 kts | 318° |
| 2026-05-07 06:13 | 48.13832 | 136.98095 | 9965 ft | 164 kts | 317° |
| 2026-05-07 06:14 | 48.14721 | 136.97032 | 9961 ft | 162 kts | 316° |
| 2026-05-07 06:14 | 48.15606 | 136.95978 | 9956 ft | 163 kts | 318° |
| 2026-05-07 06:14 | 48.16501 | 136.94922 | 9959 ft | 165 kts | 317° |
| 2026-05-07 06:14 | 48.17398 | 136.93852 | 9963 ft | 165 kts | 317° |
| 2026-05-07 06:15 | 48.18294 | 136.92787 | 9962 ft | 163 kts | 317° |
| 2026-05-07 06:15 | 48.19185 | 136.91727 | 9972 ft | 164 kts | 317° |
| 2026-05-07 06:15 | 48.20078 | 136.90657 | 9970 ft | 164 kts | 317° |
| 2026-05-07 06:15 | 48.20960 | 136.89609 | 9968 ft | 163 kts | 317° |
| 2026-05-07 06:16 | 48.21845 | 136.88557 | 9964 ft | 162 kts | 316° |
| 2026-05-07 06:16 | 48.22726 | 136.87506 | 9970 ft | 162 kts | 317° |
| 2026-05-07 06:16 | 48.23612 | 136.86450 | 9969 ft | 164 kts | 317° |
| 2026-05-07 06:16 | 48.24508 | 136.85380 | 9967 ft | 165 kts | 317° |
| 2026-05-07 06:17 | 48.25404 | 136.84308 | 9970 ft | 165 kts | 317° |
| 2026-05-07 06:17 | 48.26304 | 136.83236 | 9971 ft | 165 kts | 317° |
| 2026-05-07 06:17 | 48.27206 | 136.82159 | 9976 ft | 166 kts | 317° |
| 2026-05-07 06:17 | 48.28112 | 136.81079 | 9980 ft | 166 kts | 317° |
| 2026-05-07 06:18 | 48.29020 | 136.79984 | 9978 ft | 167 kts | 317° |
| 2026-05-07 06:18 | 48.29932 | 136.78897 | 9979 ft | 167 kts | 317° |
| 2026-05-07 06:18 | 48.30811 | 136.77756 | 9978 ft | 166 kts | 308° |
| 2026-05-07 06:18 | 48.31429 | 136.76335 | 9976 ft | 164 kts | 297° |
| 2026-05-07 06:19 | 48.32006 | 136.74857 | 9978 ft | 164 kts | 298° |
| 2026-05-07 06:19 | 48.32585 | 136.73383 | 9975 ft | 163 kts | 298° |
| 2026-05-07 06:19 | 48.33160 | 136.71911 | 9982 ft | 163 kts | 298° |
| 2026-05-07 06:19 | 48.33737 | 136.70429 | 9980 ft | 164 kts | 298° |
| 2026-05-07 06:20 | 48.34317 | 136.68945 | 9980 ft | 165 kts | 298° |
| 2026-05-07 06:20 | 48.34898 | 136.67458 | 9983 ft | 164 kts | 297° |
| 2026-05-07 06:20 | 48.35477 | 136.65972 | 9983 ft | 164 kts | 298° |
| 2026-05-07 06:20 | 48.36053 | 136.64489 | 9992 ft | 164 kts | 299° |
| 2026-05-07 06:21 | 48.36633 | 136.63006 | 9991 ft | 164 kts | 298° |
| 2026-05-07 06:21 | 48.37209 | 136.61522 | 9992 ft | 164 kts | 298° |
| 2026-05-07 06:21 | 48.37785 | 136.60044 | 9994 ft | 164 kts | 298° |
| 2026-05-07 06:21 | 48.38359 | 136.58565 | 9990 ft | 163 kts | 298° |
| 2026-05-07 06:22 | 48.38924 | 136.57112 | 9986 ft | 163 kts | 298° |
| 2026-05-07 06:22 | 48.40071 | 136.54159 | 9984 ft | 163 kts | 299° |
| 2026-05-07 06:22 | 48.40642 | 136.52684 | 9986 ft | 163 kts | 298° |
| 2026-05-07 06:23 | 48.41212 | 136.51214 | 9980 ft | 162 kts | 298° |
| 2026-05-07 06:23 | 48.41780 | 136.49747 | 9980 ft | 162 kts | 298° |
| 2026-05-07 06:23 | 48.42346 | 136.48286 | 9978 ft | 162 kts | 298° |
| 2026-05-07 06:23 | 48.42912 | 136.46823 | 9956 ft | 163 kts | 298° |
| 2026-05-07 06:24 | 48.43485 | 136.45343 | 9837 ft | 162 kts | 298° |
| 2026-05-07 06:24 | 48.44046 | 136.43895 | 9713 ft | 159 kts | 298° |
| 2026-05-07 06:24 | 48.44597 | 136.42459 | 9577 ft | 158 kts | 298° |
| 2026-05-07 06:24 | 48.45152 | 136.41032 | 9439 ft | 158 kts | 298° |
| 2026-05-07 06:25 | 48.45703 | 136.39599 | 9305 ft | 158 kts | 298° |
| 2026-05-07 06:25 | 48.46259 | 136.38159 | 9170 ft | 159 kts | 298° |
| 2026-05-07 06:25 | 48.46818 | 136.36709 | 9036 ft | 159 kts | 298° |
| 2026-05-07 06:25 | 48.47376 | 136.35261 | 8904 ft | 160 kts | 298° |
| 2026-05-07 06:26 | 48.47938 | 136.33799 | 8763 ft | 162 kts | 298° |
| 2026-05-07 06:26 | 48.48506 | 136.32325 | 8632 ft | 163 kts | 298° |
| 2026-05-07 06:26 | 48.49075 | 136.30843 | 8511 ft | 164 kts | 299° |
| 2026-05-07 06:26 | 48.49649 | 136.29349 | 8390 ft | 165 kts | 300° |
| 2026-05-07 06:27 | 48.50241 | 136.27812 | 8128 ft | 173 kts | 300° |
| 2026-05-07 06:27 | 48.50845 | 136.26241 | 8028 ft | 170 kts | 300° |
| 2026-05-07 06:27 | 48.51428 | 136.24723 | 8023 ft | 165 kts | 300° |
| 2026-05-07 06:27 | 48.51996 | 136.23239 | 8023 ft | 162 kts | 299° |
| 2026-05-07 06:28 | 48.52559 | 136.21770 | 8020 ft | 161 kts | 300° |
| 2026-05-07 06:28 | 48.53118 | 136.20310 | 8019 ft | 160 kts | 300° |
| 2026-05-07 06:28 | 48.53671 | 136.18867 | 8017 ft | 158 kts | 299° |
| 2026-05-07 06:28 | 48.54220 | 136.17432 | 8016 ft | 157 kts | 300° |
| 2026-05-07 06:29 | 48.54765 | 136.16007 | 8014 ft | 157 kts | 299° |
| 2026-05-07 06:29 | 48.55311 | 136.14578 | 8013 ft | 157 kts | 300° |
| 2026-05-07 06:29 | 48.55861 | 136.13143 | 8013 ft | 158 kts | 300° |
| 2026-05-07 06:29 | 48.56403 | 136.11724 | 8014 ft | 158 kts | 300° |
| 2026-05-07 06:30 | 48.56947 | 136.10288 | 8014 ft | 157 kts | 299° |
| 2026-05-07 06:30 | 48.57495 | 136.08854 | 8018 ft | 157 kts | 299° |
| 2026-05-07 06:30 | 48.58044 | 136.07420 | 8016 ft | 158 kts | 300° |
| 2026-05-07 06:30 | 48.58593 | 136.05982 | 8017 ft | 158 kts | 299° |
| 2026-05-07 06:31 | 48.59142 | 136.04541 | 8018 ft | 158 kts | 299° |
| 2026-05-07 06:31 | 48.59689 | 136.03101 | 8018 ft | 158 kts | 299° |
| 2026-05-07 06:31 | 48.60235 | 136.01665 | 8018 ft | 157 kts | 299° |
| 2026-05-07 06:31 | 48.60782 | 136.00230 | 8020 ft | 157 kts | 299° |
| 2026-05-07 06:32 | 48.61328 | 135.98790 | 8019 ft | 158 kts | 299° |
| 2026-05-07 06:32 | 48.61875 | 135.97350 | 8017 ft | 157 kts | 299° |
| 2026-05-07 06:32 | 48.62421 | 135.95911 | 8016 ft | 158 kts | 300° |
| 2026-05-07 06:32 | 48.62968 | 135.94466 | 8017 ft | 158 kts | 300° |
| 2026-05-07 06:33 | 48.63521 | 135.93019 | 8017 ft | 159 kts | 300° |
| 2026-05-07 06:33 | 48.64060 | 135.91556 | 8015 ft | 159 kts | 293° |
| 2026-05-07 06:33 | 48.64245 | 135.89880 | 7888 ft | 166 kts | 276° |
| 2026-05-07 06:33 | 48.64349 | 135.88150 | 7763 ft | 168 kts | 278° |
| 2026-05-07 06:34 | 48.64504 | 135.86379 | 7638 ft | 171 kts | 279° |
| 2026-05-07 06:34 | 48.64665 | 135.84633 | 7509 ft | 162 kts | 279° |
| 2026-05-07 06:34 | 48.64816 | 135.82982 | 7376 ft | 156 kts | 279° |
| 2026-05-07 06:34 | 48.64965 | 135.81387 | 7234 ft | 151 kts | 279° |
| 2026-05-07 06:35 | 48.65110 | 135.79821 | 7099 ft | 149 kts | 279° |
| 2026-05-07 06:35 | 48.65253 | 135.78267 | 6970 ft | 149 kts | 279° |
| 2026-05-07 06:35 | 48.65394 | 135.76715 | 6845 ft | 149 kts | 279° |
| 2026-05-07 06:35 | 48.65538 | 135.75161 | 6715 ft | 148 kts | 279° |
| 2026-05-07 06:36 | 48.65680 | 135.73619 | 6590 ft | 148 kts | 279° |
| 2026-05-07 06:36 | 48.65821 | 135.72081 | 6465 ft | 148 kts | 279° |
| 2026-05-07 06:36 | 48.65963 | 135.70536 | 6342 ft | 149 kts | 279° |
| 2026-05-07 06:36 | 48.66104 | 135.68978 | 6216 ft | 149 kts | 279° |
| 2026-05-07 06:37 | 48.66245 | 135.67430 | 6090 ft | 148 kts | 279° |
| 2026-05-07 06:37 | 48.66386 | 135.65885 | 5961 ft | 149 kts | 279° |
| 2026-05-07 06:37 | 48.66528 | 135.64332 | 5825 ft | 149 kts | 280° |
| 2026-05-07 06:37 | 48.66668 | 135.62783 | 5694 ft | 148 kts | 279° |
| 2026-05-07 06:38 | 48.66807 | 135.61254 | 5562 ft | 149 kts | 279° |
| 2026-05-07 06:38 | 48.66948 | 135.59697 | 5427 ft | 150 kts | 279° |
| 2026-05-07 06:38 | 48.67089 | 135.58132 | 5328 ft | 148 kts | 279° |
| 2026-05-07 06:38 | 48.67230 | 135.56574 | 5157 ft | 151 kts | 279° |
| 2026-05-07 06:39 | 48.67374 | 135.54984 | 4956 ft | 154 kts | 279° |
| 2026-05-07 06:39 | 48.67470 | 135.53917 | 4815 ft | 155 kts | 279° |
| 2026-05-07 06:39 | 48.67665 | 135.51749 | 4537 ft | 156 kts | 280° |
| 2026-05-07 06:39 | 48.67763 | 135.50668 | 4398 ft | 157 kts | 279° |
| 2026-05-07 06:40 | 48.67908 | 135.49033 | 4190 ft | 157 kts | 280° |
| 2026-05-07 06:40 | 48.68054 | 135.47392 | 3981 ft | 157 kts | 280° |
| 2026-05-07 06:40 | 48.68204 | 135.45734 | 3766 ft | 160 kts | 280° |
| 2026-05-07 06:40 | 48.68350 | 135.44080 | 3557 ft | 156 kts | 280° |
| 2026-05-07 06:41 | 48.68470 | 135.42472 | 3352 ft | 153 kts | 274° |
| 2026-05-07 06:41 | 48.68270 | 135.40896 | 3152 ft | 155 kts | 253° |
| 2026-05-07 06:41 | 48.67709 | 135.39514 | 3031 ft | 155 kts | 233° |
| 2026-05-07 06:41 | 48.66912 | 135.38410 | 2909 ft | 155 kts | 226° |
| 2026-05-07 06:42 | 48.66117 | 135.37314 | 2781 ft | 154 kts | 227° |
| 2026-05-07 06:42 | 48.65323 | 135.36219 | 2657 ft | 155 kts | 227° |
| 2026-05-07 06:42 | 48.64519 | 135.35114 | 2533 ft | 157 kts | 225° |
| 2026-05-07 06:42 | 48.63706 | 135.34003 | 2403 ft | 158 kts | 224° |
| 2026-05-07 06:43 | 48.62897 | 135.32895 | 2312 ft | 156 kts | 225° |
| 2026-05-07 06:43 | 48.62076 | 135.31775 | 2149 ft | 161 kts | 225° |
| 2026-05-07 06:43 | 48.61237 | 135.30615 | 1954 ft | 164 kts | 224° |
| 2026-05-07 06:43 | 48.60386 | 135.29451 | 1756 ft | 165 kts | 225° |
| 2026-05-07 06:44 | 48.59542 | 135.28300 | 1552 ft | 165 kts | 226° |
| 2026-05-07 06:44 | 48.58726 | 135.27185 | 1351 ft | 145 kts | 226° |
| 2026-05-07 06:44 | 48.58038 | 135.26301 | 1248 ft | 114 kts | 222° |
| 2026-05-07 06:44 | 48.57458 | 135.25603 | 1214 ft | 101 kts | 228° |
| 2026-05-07 06:45 | 48.56938 | 135.24906 | 1217 ft | 94 kts | 228° |
| 2026-05-07 06:45 | 48.56436 | 135.24239 | 1185 ft | 99 kts | 230° |
| 2026-05-07 06:45 | 48.55951 | 135.23520 | 1169 ft | 93 kts | 232° |
| 2026-05-07 06:45 | 48.55488 | 135.22854 | 977 ft | 91 kts | 221° |
| 2026-05-07 06:46 | 48.55060 | 135.22187 | 804 ft | 86 kts | 222° |
| 2026-05-07 06:46 | 48.54617 | 135.21576 | 599 ft | 88 kts | 217° |
| 2026-05-07 06:46 | 48.54166 | 135.20953 | 348 ft | 85 kts | 215° |
| 2026-05-07 06:46 | 48.53803 | 135.20477 | 240 ft | 51 kts | 219° |
| 2026-05-07 06:47 | 48.53591 | 135.20188 | 238 ft | 34 kts | 220° |
| 2026-05-07 06:47 | 48.53440 | 135.19976 | 238 ft | 26 kts | 223° |
| 2026-05-07 06:47 | 48.53322 | 135.19809 | 240 ft | 22 kts | 222° |
| 2026-05-07 06:47 | 48.53207 | 135.19653 | 240 ft | 23 kts | 219° |
| 2026-05-07 06:48 | 48.53094 | 135.19502 | 241 ft | 20 kts | 224° |
| 2026-05-07 06:48 | 48.53025 | 135.19355 | 239 ft | 14 kts | 250° |
| 2026-05-07 06:48 | 48.53004 | 135.19228 | 239 ft | 11 kts | 258° |
| 2026-05-07 06:48 | 48.52989 | 135.19131 | 239 ft | 8 kts | 257° |
| 2026-05-07 06:49 | 48.52974 | 135.19038 | 238 ft | 12 kts | 257° |
| 2026-05-07 06:49 | 48.52951 | 135.18891 | 238 ft | 16 kts | 257° |
| 2026-05-07 06:49 | 48.52949 | 135.18716 | 238 ft | 17 kts | 313° |
| 2026-05-07 06:49 | 48.52992 | 135.18652 | 239 ft | 9 kts | 312° |
| 2026-05-07 06:50 | 48.53045 | 135.18562 | 239 ft | 14 kts | 309° |
| 2026-05-07 06:50 | 48.53020 | 135.18427 | 239 ft | 17 kts | 218° |
| 2026-05-07 06:50 | 48.52922 | 135.18295 | 240 ft | 21 kts | 221° |
| 2026-05-07 06:50 | 48.52819 | 135.18154 | 240 ft | 18 kts | 223° |
| 2026-05-07 06:51 | 48.52795 | 135.18029 | 240 ft | 14 kts | 311° |
| 2026-05-07 06:51 | 48.52868 | 135.17907 | 240 ft | 15 kts | 310° |
| 2026-05-07 06:51 | 48.52928 | 135.17800 | 240 ft | 12 kts | 302° |
| 2026-05-07 06:51 | 48.52895 | 135.17697 | 240 ft | 14 kts | 222° |
| 2026-05-07 06:52 | 48.52821 | 135.17597 | 240 ft | 13 kts | 223° |
| 2026-05-07 06:52 | 48.52764 | 135.17512 | 240 ft | 10 kts | 253° |
| 2026-05-07 06:52 | 48.52771 | 135.17482 | 240 ft | 0 kts | 294° |
| 2026-05-07 06:52 | 48.52773 | 135.17475 | 240 ft | 0 kts | 300° |